createdAt,value
2023-01-04T00:02:04.139Z,6.88
2023-01-04T00:04:30.718Z,7.28
2023-01-04T00:06:57.387Z,6.91
2023-01-04T00:09:23.912Z,7.05
2023-01-04T00:11:50.466Z,6.94
2023-01-04T00:14:19.141Z,6.79
2023-01-04T00:16:45.789Z,6.90
2023-01-04T00:19:13.001Z,7.00
2023-01-04T00:21:39.574Z,6.79
2023-01-04T00:24:06.300Z,6.90
2023-01-04T00:26:36.181Z,6.85
2023-01-04T00:29:04.406Z,6.82
2023-01-04T00:31:31.197Z,6.72
2023-01-04T00:33:58.818Z,6.99
2023-01-04T00:36:25.659Z,6.81
2023-01-04T00:39:07.902Z,7.11
2023-01-04T00:44:26.366Z,7.38
2023-01-04T00:46:53.148Z,7.08
2023-01-04T00:49:19.912Z,6.85
2023-01-04T00:51:48.797Z,7.04
2023-01-04T00:54:15.903Z,7.08
2023-01-04T00:56:45.919Z,7.13
2023-01-04T00:59:15.633Z,7.05
2023-01-04T01:01:50.102Z,7.10
2023-01-04T01:04:18.732Z,7.41
2023-01-04T01:06:45.464Z,7.34
2023-01-04T01:09:12.085Z,7.20
2023-01-04T01:11:40.257Z,7.36
2023-01-04T01:14:10.024Z,7.20
2023-01-04T01:19:25.386Z,6.87
2023-01-04T01:21:51.898Z,6.97
2023-01-04T01:24:19.259Z,7.18
2023-01-04T01:26:45.930Z,6.99
2023-01-04T01:29:14.949Z,7.26
2023-01-04T01:31:41.859Z,6.90
2023-01-04T01:34:08.627Z,6.88
2023-01-04T01:36:35.443Z,6.90
2023-01-04T01:39:02.020Z,6.99
2023-01-04T01:41:29.637Z,6.96
2023-01-04T01:43:56.305Z,7.02
2023-01-04T01:46:32.030Z,7.07
2023-01-04T01:49:05.137Z,7.32
2023-01-04T01:51:32.451Z,7.23
2023-01-04T01:54:03.407Z,7.12
2023-01-04T01:56:32.588Z,6.88
2023-01-04T01:59:00.101Z,6.88
2023-01-04T02:01:27.426Z,6.75
2023-01-04T02:03:54.861Z,6.96
2023-01-04T02:06:24.251Z,6.98
2023-01-04T02:08:53.201Z,6.95
2023-01-04T02:11:19.738Z,7.01
2023-01-04T02:14:05.334Z,7.08
2023-01-04T02:16:50.736Z,7.11
2023-01-04T02:19:26.221Z,7.17
2023-01-04T02:22:11.093Z,7.17
2023-01-04T02:24:50.520Z,7.21
2023-01-04T02:27:46.485Z,7.07
2023-01-04T02:30:35.896Z,7.17
2023-01-04T02:33:11.719Z,7.48
2023-01-04T02:35:41.326Z,7.21
2023-01-04T02:38:12.906Z,7.08
2023-01-04T02:40:48.586Z,7.21
2023-01-04T02:43:50.112Z,7.12
2023-01-04T02:46:27.612Z,7.31
2023-01-04T02:49:13.008Z,7.32
2023-01-04T02:51:39.563Z,7.35
2023-01-04T02:54:11.771Z,7.58
2023-01-04T02:57:01.128Z,7.62
2023-01-04T02:59:51.570Z,7.70
2023-01-04T03:02:46.328Z,7.65
2023-01-04T03:05:43.072Z,7.47
2023-01-04T03:08:21.799Z,7.57
2023-01-04T03:10:48.375Z,7.61
2023-01-04T03:13:21.744Z,7.93
2023-01-04T03:15:51.637Z,7.96
2023-01-04T03:18:24.095Z,7.82
2023-01-04T03:20:53.009Z,7.72
2023-01-04T03:23:40.555Z,7.90
2023-01-04T03:26:30.060Z,7.98
2023-01-04T03:29:18.922Z,7.72
2023-01-04T03:32:06.882Z,7.95
2023-01-04T03:34:52.440Z,7.87
2023-01-04T03:37:23.564Z,8.17
2023-01-04T03:40:28.498Z,7.99
2023-01-04T03:43:16.796Z,7.97
2023-01-04T03:46:05.608Z,8.11
2023-01-04T03:48:37.447Z,8.05
2023-01-04T03:51:16.684Z,8.10
2023-01-04T03:53:50.735Z,8.06
2023-01-04T03:56:18.997Z,8.05
2023-01-04T03:58:46.439Z,8.10
2023-01-04T04:01:13.272Z,7.94
2023-01-04T04:03:58.560Z,8.22
2023-01-04T04:06:44.127Z,8.37
2023-01-04T04:09:12.055Z,8.36
2023-01-04T04:11:38.583Z,8.43
2023-01-04T04:14:05.191Z,8.71
2023-01-04T04:16:31.799Z,8.76
2023-01-04T04:19:01.866Z,9.02
2023-01-04T04:21:31.316Z,9.07
2023-01-04T04:23:57.899Z,9.27
2023-01-04T04:26:24.597Z,9.14
2023-01-04T04:28:51.986Z,9.12
2023-01-04T04:31:18.607Z,9.32
2023-01-04T04:33:45.144Z,9.22
2023-01-04T04:36:11.792Z,9.12
2023-01-04T04:38:38.523Z,9.09
2023-01-04T04:41:29.755Z,8.86
2023-01-04T04:43:57.387Z,8.91
2023-01-04T04:46:24.310Z,9.10
2023-01-04T04:48:57.330Z,8.83
2023-01-04T04:51:26.959Z,8.57
2023-01-04T04:53:53.597Z,8.54
2023-01-04T04:56:23.302Z,8.65
2023-01-04T04:58:50.092Z,8.49
2023-01-04T05:01:16.864Z,8.38
2023-01-04T05:03:43.634Z,8.47
2023-01-04T05:06:10.349Z,8.26
2023-01-04T05:08:37.162Z,8.35
2023-01-04T05:11:07.692Z,8.38
2023-01-04T05:13:34.538Z,8.48
2023-01-04T05:16:04.361Z,8.36
2023-01-04T05:18:31.300Z,8.45
2023-01-04T05:20:57.821Z,8.47
2023-01-04T05:23:24.620Z,8.42
2023-01-04T05:25:55.736Z,8.56
2023-01-04T05:28:22.760Z,8.47
2023-01-04T05:30:55.923Z,8.58
2023-01-04T05:33:24.288Z,8.68
2023-01-04T05:35:52.012Z,8.70
2023-01-04T05:38:19.273Z,8.70
2023-01-04T05:40:45.870Z,8.81
2023-01-04T05:43:13.990Z,8.55
2023-01-04T05:45:44.676Z,8.57
2023-01-04T05:48:11.355Z,8.69
2023-01-04T05:50:37.951Z,8.77
2023-01-04T05:53:05.589Z,8.64
2023-01-04T05:55:32.440Z,8.74
2023-01-04T05:57:59.004Z,8.76
2023-01-04T06:00:25.613Z,8.80
2023-01-04T06:02:52.765Z,9.01
2023-01-04T06:07:59.950Z,8.84
2023-01-04T06:10:26.531Z,8.80
2023-01-04T06:12:53.114Z,9.02
2023-01-04T06:15:19.794Z,9.04
2023-01-04T06:17:46.354Z,9.12
2023-01-04T06:20:12.947Z,8.99
2023-01-04T06:22:40.800Z,8.91
2023-01-04T06:25:08.352Z,9.03
2023-01-04T06:27:35.406Z,8.95
2023-01-04T06:30:02.114Z,8.97
2023-01-04T06:32:28.717Z,9.24
2023-01-04T06:34:55.256Z,9.09
2023-01-04T06:37:21.975Z,9.30
2023-01-04T06:39:48.516Z,9.31
2023-01-04T06:42:34.124Z,9.32
2023-01-04T06:45:00.704Z,9.32
2023-01-04T06:47:27.265Z,9.34
2023-01-04T06:49:53.952Z,9.56
2023-01-04T06:52:22.633Z,9.38
2023-01-04T06:54:49.188Z,9.46
2023-01-04T06:57:18.960Z,9.56
2023-01-04T06:59:45.571Z,9.52
2023-01-04T07:02:21.615Z,9.33
2023-01-04T07:04:48.302Z,9.39
2023-01-04T07:07:15.035Z,9.78
2023-01-04T07:09:41.621Z,9.64
2023-01-04T07:12:11.001Z,9.88
2023-01-04T07:14:37.579Z,9.75
2023-01-04T07:17:04.147Z,9.72
2023-01-04T07:19:30.822Z,9.83
2023-01-04T07:21:58.880Z,9.72
2023-01-04T07:24:30.016Z,10.03
2023-01-04T07:26:57.069Z,9.75
2023-01-04T07:29:25.370Z,9.81
2023-01-04T07:31:52.860Z,10.05
2023-01-04T07:34:22.552Z,9.88
2023-01-04T07:36:49.650Z,9.94
2023-01-04T07:39:16.683Z,9.80
2023-01-04T07:41:43.570Z,9.91
2023-01-04T07:44:10.974Z,10.07
2023-01-04T07:46:38.521Z,10.07
2023-01-04T07:49:11.689Z,9.83
2023-01-04T07:51:43.150Z,10.00
2023-01-04T07:54:12.523Z,10.13
2023-01-04T07:56:39.122Z,10.04
2023-01-04T07:59:09.542Z,10.37
2023-01-04T08:01:38.076Z,10.28
2023-01-04T08:04:06.160Z,10.26
2023-01-04T08:06:35.708Z,10.15
2023-01-04T08:09:03.470Z,10.13
2023-01-04T08:11:31.010Z,9.98
2023-01-04T08:13:57.633Z,10.23
2023-01-04T08:16:27.647Z,10.12
2023-01-04T08:18:55.515Z,9.93
2023-01-04T08:21:22.497Z,10.05
2023-01-04T08:23:49.124Z,10.15
2023-01-04T08:26:18.026Z,10.02
2023-01-04T08:28:44.864Z,10.08
2023-01-04T08:31:13.588Z,9.91
2023-01-04T08:33:41.086Z,10.27
2023-01-04T08:36:34.286Z,9.98
2023-01-04T08:39:06.114Z,10.01
2023-01-04T08:41:58.420Z,10.06
2023-01-04T08:44:21.503Z,9.94
2023-01-04T08:46:51.483Z,10.11
2023-01-04T08:49:18.380Z,9.92
2023-01-04T08:51:47.192Z,10.07
2023-01-04T08:54:14.011Z,10.01
2023-01-04T08:56:40.689Z,9.96
2023-01-04T08:59:07.682Z,10.11
2023-01-04T09:01:34.931Z,10.17
2023-01-04T09:04:01.687Z,10.09
2023-01-04T09:06:28.887Z,10.05
2023-01-04T09:08:56.346Z,10.02
2023-01-04T09:11:23.868Z,10.20
2023-01-04T09:13:54.451Z,10.41
2023-01-04T09:16:21.131Z,10.27
2023-01-04T09:18:47.684Z,10.32
2023-01-04T09:21:19.419Z,10.11
2023-01-04T09:23:46.547Z,10.01
2023-01-04T09:26:15.363Z,10.28
2023-01-04T09:28:42.166Z,10.08
2023-01-04T09:31:09.697Z,10.34
2023-01-04T09:34:12.011Z,10.33
2023-01-04T09:36:24.510Z,10.25
2023-01-04T09:38:52.289Z,10.44
2023-01-04T09:41:22.873Z,10.32
2023-01-04T09:43:53.671Z,10.10
2023-01-04T09:46:33.000Z,10.45
2023-01-04T09:49:23.133Z,10.14
2023-01-04T09:51:58.323Z,10.15
2023-01-04T09:57:03.506Z,10.08
2023-01-04T09:59:32.074Z,9.87
2023-01-04T10:02:07.167Z,9.78
2023-01-04T10:04:48.209Z,9.82
2023-01-04T10:07:23.001Z,9.82
2023-01-04T10:09:49.717Z,9.80
2023-01-04T10:12:28.767Z,9.91
2023-01-04T10:15:00.702Z,9.90
2023-01-04T10:23:18.258Z,9.96
2023-01-04T10:26:03.563Z,10.12
2023-01-04T10:28:32.199Z,10.09
2023-01-04T10:31:40.253Z,10.22
2023-01-04T10:34:18.588Z,10.23
2023-01-04T10:36:46.614Z,10.10
2023-01-04T10:39:15.850Z,10.50
2023-01-04T10:41:49.067Z,10.54
2023-01-04T10:44:24.906Z,10.50
2023-01-04T10:47:00.424Z,10.44
2023-01-04T10:49:39.275Z,10.56
2023-01-04T10:52:10.816Z,10.30
2023-01-04T10:54:37.374Z,10.45
2023-01-04T10:57:06.883Z,10.51
2023-01-04T10:59:52.557Z,10.51
2023-01-04T11:02:19.134Z,10.64
2023-01-04T11:05:00.578Z,10.71
2023-01-04T11:07:31.739Z,10.80
2023-01-04T11:10:10.713Z,10.80
2023-01-04T11:12:39.456Z,10.65
2023-01-04T11:15:06.273Z,10.70
2023-01-04T11:17:35.529Z,10.56
2023-01-04T11:20:02.233Z,10.52
2023-01-04T11:22:36.304Z,10.54
2023-01-04T11:27:56.326Z,10.40
2023-01-04T11:30:24.306Z,10.53
2023-01-04T11:33:03.607Z,10.51
2023-01-04T11:35:44.507Z,10.55
2023-01-04T11:38:11.189Z,10.35
2023-01-04T11:40:37.798Z,10.36
2023-01-04T11:43:22.650Z,10.46
2023-01-04T11:45:56.085Z,10.43
2023-01-04T11:48:32.520Z,10.35
2023-01-04T11:50:59.112Z,10.39
2023-01-04T11:53:25.626Z,10.60
2023-01-04T11:55:52.964Z,10.30
2023-01-04T11:58:19.794Z,10.26
2023-01-04T12:00:56.743Z,10.34
2023-01-04T12:03:27.845Z,10.25
2023-01-04T12:05:54.697Z,10.38
2023-01-04T12:08:28.272Z,10.52
2023-01-04T12:10:57.603Z,10.28
2023-01-04T12:13:24.235Z,10.42
2023-01-04T12:16:00.115Z,10.44
2023-01-04T12:18:29.102Z,10.24
2023-01-04T12:21:01.174Z,10.53
2023-01-04T12:23:29.301Z,10.38
2023-01-04T12:25:57.019Z,10.22
2023-01-04T12:28:37.644Z,10.23
2023-01-04T12:31:20.440Z,10.67
2023-01-04T12:33:59.895Z,10.38
2023-01-04T12:36:38.673Z,10.41
2023-01-04T12:39:05.387Z,10.66
2023-01-04T12:41:34.975Z,10.45
2023-01-04T12:44:02.450Z,10.58
2023-01-04T12:46:47.745Z,10.75
2023-01-04T12:49:26.752Z,10.68
2023-01-04T12:55:00.881Z,10.63
2023-01-04T12:57:37.748Z,10.83
2023-01-04T13:00:09.540Z,10.65
2023-01-04T13:02:44.023Z,10.78
2023-01-04T13:08:11.328Z,10.71
2023-01-04T13:10:50.002Z,10.85
2023-01-04T13:13:26.113Z,10.66
2023-01-04T13:16:11.241Z,10.76
2023-01-04T13:18:39.826Z,10.75
2023-01-04T13:21:26.712Z,10.84
2023-01-04T13:24:01.153Z,11.03
2023-01-04T13:26:46.076Z,10.84
2023-01-04T13:29:13.362Z,10.90
2023-01-04T13:31:53.340Z,11.11
2023-01-04T13:34:22.026Z,10.96
2023-01-04T13:36:55.886Z,11.17
2023-01-04T13:39:25.715Z,11.02
2023-01-04T13:41:54.291Z,10.99
2023-01-04T13:44:44.148Z,11.12
2023-01-04T13:47:14.921Z,11.05
2023-01-04T13:49:41.641Z,11.34
2023-01-04T13:52:52.237Z,11.22
2023-01-04T13:55:22.958Z,10.95
2023-01-04T13:57:54.145Z,11.01
2023-01-04T14:00:20.900Z,10.76
2023-01-04T14:02:47.823Z,11.09
2023-01-04T14:05:17.858Z,10.89
2023-01-04T14:07:45.590Z,11.18
2023-01-04T14:10:16.339Z,11.03
2023-01-04T14:12:44.513Z,11.10
2023-01-04T14:15:19.457Z,11.00
2023-01-04T14:17:52.158Z,11.08
2023-01-04T14:20:24.673Z,11.01
2023-01-04T14:22:52.708Z,11.12
2023-01-04T14:25:36.329Z,11.13
2023-01-04T14:28:22.233Z,10.89
2023-01-04T14:30:53.434Z,11.11
2023-01-04T14:33:23.296Z,11.07
2023-01-04T14:36:08.824Z,11.00
2023-01-04T14:38:36.955Z,11.07
2023-01-04T14:41:12.585Z,10.92
2023-01-04T14:43:46.927Z,11.03
2023-01-04T14:46:13.606Z,11.10
2023-01-04T14:48:43.208Z,11.01
2023-01-04T14:51:12.810Z,10.98
2023-01-04T14:53:39.677Z,11.07
2023-01-04T14:56:06.529Z,11.14
2023-01-04T14:58:33.055Z,10.96
2023-01-04T15:00:59.672Z,11.08
2023-01-04T15:03:26.280Z,11.21
2023-01-04T15:05:53.035Z,11.29
2023-01-04T15:08:19.817Z,11.27
2023-01-04T15:10:46.606Z,11.34
2023-01-04T15:13:14.535Z,11.23
2023-01-04T15:15:41.831Z,11.33
2023-01-04T15:18:08.603Z,11.09
2023-01-04T15:20:35.604Z,11.04
2023-01-04T15:23:02.229Z,11.14
2023-01-04T15:25:29.883Z,11.41
2023-01-04T15:27:56.527Z,11.31
2023-01-04T15:30:23.208Z,11.17
2023-01-04T15:32:49.907Z,11.17
2023-01-04T15:35:17.205Z,11.18
2023-01-04T15:37:45.271Z,11.19
2023-01-04T15:40:13.209Z,11.23
2023-01-04T15:43:00.459Z,11.24
2023-01-04T15:45:47.779Z,11.31
2023-01-04T15:51:22.645Z,11.40
2023-01-04T15:53:53.040Z,11.10
2023-01-04T15:56:20.457Z,11.28
2023-01-04T15:58:47.495Z,11.26
2023-01-04T16:01:17.134Z,11.52
2023-01-04T16:03:47.360Z,11.48
2023-01-04T16:06:17.551Z,11.51
2023-01-04T16:08:47.226Z,11.54
2023-01-04T16:11:18.532Z,11.62
2023-01-04T16:13:46.376Z,11.38
2023-01-04T16:16:13.183Z,11.60
2023-01-04T16:18:56.047Z,11.78
2023-01-04T16:21:25.202Z,11.92
2023-01-04T16:23:56.987Z,11.97
2023-01-04T16:26:26.911Z,12.18
2023-01-04T16:28:59.779Z,12.23
2023-01-04T16:31:26.544Z,12.30
2023-01-04T16:33:54.118Z,12.34
2023-01-04T16:36:25.037Z,12.53
2023-01-04T16:39:00.448Z,12.45
2023-01-04T16:41:29.414Z,12.72
2023-01-04T16:44:05.537Z,12.73
2023-01-04T16:46:33.624Z,12.82
2023-01-04T16:49:18.831Z,12.92
2023-01-04T16:51:49.636Z,12.98
2023-01-04T16:54:17.327Z,12.89
2023-01-04T16:56:44.661Z,13.06
2023-01-04T16:59:13.213Z,12.99
2023-01-04T17:01:48.858Z,12.84
2023-01-04T17:04:18.390Z,12.92
2023-01-04T17:06:45.785Z,12.97
2023-01-04T17:09:16.496Z,13.10
2023-01-04T17:12:36.732Z,13.10
2023-01-04T17:14:45.468Z,13.00
2023-01-04T17:17:12.076Z,13.00
2023-01-04T17:19:38.682Z,13.10
2023-01-04T17:22:05.306Z,13.16
2023-01-04T17:24:33.948Z,13.00
2023-01-04T17:27:00.520Z,13.02
2023-01-04T17:29:27.238Z,13.07
2023-01-04T17:31:56.431Z,12.94
2023-01-04T17:34:23.522Z,13.06
2023-01-04T17:36:50.545Z,13.09
2023-01-04T17:39:32.917Z,13.08
2023-01-04T17:41:59.557Z,13.13
2023-01-04T17:44:26.203Z,13.10
2023-01-04T17:46:56.203Z,13.30
2023-01-04T17:49:27.743Z,13.32
2023-01-04T17:52:02.194Z,13.31
2023-01-04T17:54:28.708Z,13.37
2023-01-04T17:56:55.315Z,13.24
2023-01-04T17:59:21.977Z,13.21
2023-01-04T18:01:48.826Z,13.29
2023-01-04T18:04:18.045Z,13.23
2023-01-04T18:06:44.684Z,13.34
2023-01-04T18:09:13.330Z,13.21
2023-01-04T18:11:53.295Z,13.09
2023-01-04T18:14:19.986Z,13.11
2023-01-04T18:16:59.293Z,13.23
2023-01-04T18:19:29.661Z,13.16
2023-01-04T18:21:56.739Z,13.21
2023-01-04T18:24:39.456Z,13.20
2023-01-04T18:27:26.724Z,13.09
2023-01-04T18:29:54.480Z,13.30
2023-01-04T18:32:25.060Z,13.31
2023-01-04T18:34:51.621Z,13.38
2023-01-04T18:37:18.923Z,13.38
2023-01-04T18:39:46.151Z,13.53
2023-01-04T18:42:12.685Z,13.43
2023-01-04T18:44:46.032Z,13.49
2023-01-04T18:47:15.544Z,13.59
2023-01-04T18:49:42.161Z,13.61
2023-01-04T18:52:08.750Z,13.41
2023-01-04T18:54:35.266Z,13.36
2023-01-04T18:57:01.996Z,13.55
2023-01-04T18:59:29.171Z,13.54
2023-01-04T19:02:01.487Z,13.51
2023-01-04T19:04:33.357Z,13.39
2023-01-04T19:07:00.679Z,13.39
2023-01-04T19:09:27.225Z,13.33
2023-01-04T19:11:53.885Z,13.38
2023-01-04T19:14:20.520Z,13.38
2023-01-04T19:16:47.274Z,13.24
2023-01-04T19:19:13.901Z,13.29
2023-01-04T19:21:50.490Z,13.29
2023-01-04T19:24:17.096Z,13.18
2023-01-04T19:26:43.612Z,13.21
2023-01-04T19:29:10.247Z,13.25
2023-01-04T19:31:36.797Z,13.22
2023-01-04T19:34:03.808Z,13.21
2023-01-04T19:36:30.318Z,13.30
2023-01-04T19:38:57.495Z,13.17
2023-01-04T19:41:31.218Z,13.10
2023-01-04T19:44:03.006Z,13.15
2023-01-04T19:46:30.450Z,13.27
2023-01-04T19:48:57.686Z,13.21
2023-01-04T19:51:26.898Z,13.13
2023-01-04T19:53:53.427Z,13.30
2023-01-04T19:56:19.975Z,13.07
2023-01-04T19:58:46.548Z,13.08
2023-01-04T20:01:13.934Z,13.16
2023-01-04T20:03:42.268Z,13.16
2023-01-04T20:06:09.332Z,13.17
2023-01-04T20:08:35.907Z,12.89
2023-01-04T20:11:02.865Z,13.14
2023-01-04T20:13:30.408Z,13.11
2023-01-04T20:15:57.053Z,13.14
2023-01-04T20:18:26.441Z,13.08
2023-01-04T20:20:53.551Z,13.08
2023-01-04T20:23:21.712Z,13.19
2023-01-04T20:25:53.540Z,13.18
2023-01-04T20:28:22.541Z,13.21
2023-01-04T20:30:49.148Z,13.16
2023-01-04T20:33:15.746Z,13.41
2023-01-04T20:35:47.070Z,13.20
2023-01-04T20:38:14.352Z,13.16
2023-01-04T20:40:41.146Z,13.19
2023-01-04T20:43:29.050Z,13.29
2023-01-04T20:45:55.729Z,13.09
2023-01-04T20:48:24.666Z,13.21
2023-01-04T20:50:51.780Z,13.13
2023-01-04T20:53:18.376Z,13.21
2023-01-04T20:55:44.974Z,12.70
2023-01-04T20:58:12.850Z,12.44
2023-01-04T21:00:40.148Z,12.30
2023-01-04T21:03:07.613Z,12.40
2023-01-04T21:05:35.887Z,12.43
2023-01-04T21:08:02.569Z,12.38
2023-01-04T21:10:29.264Z,12.51
2023-01-04T21:12:55.823Z,12.46
2023-01-04T21:15:22.444Z,12.38
2023-01-04T21:17:48.983Z,12.46
2023-01-04T21:20:15.642Z,12.61
2023-01-04T21:22:42.218Z,12.63
2023-01-04T21:25:09.104Z,12.50
2023-01-04T21:27:35.968Z,12.64
2023-01-04T21:30:02.574Z,12.68
2023-01-04T21:32:30.473Z,12.57
2023-01-04T21:34:57.062Z,12.58
2023-01-04T21:37:24.876Z,12.64
2023-01-04T21:39:53.040Z,12.53
2023-01-04T21:42:19.660Z,12.60
2023-01-04T21:44:46.288Z,12.25
2023-01-04T21:47:12.821Z,12.05
2023-01-04T21:49:43.748Z,11.96
2023-01-04T21:52:10.848Z,11.88
2023-01-04T21:54:37.827Z,11.98
2023-01-04T21:57:04.823Z,12.05
2023-01-04T21:59:31.569Z,11.74
2023-01-04T22:01:58.303Z,11.78
2023-01-04T22:04:25.019Z,11.87
2023-01-04T22:06:51.668Z,11.92
2023-01-04T22:09:18.252Z,11.68
2023-01-04T22:11:45.905Z,11.68
2023-01-04T22:14:12.455Z,11.61
2023-01-04T22:16:39.165Z,11.17
2023-01-04T22:19:05.756Z,11.05
2023-01-04T22:21:32.445Z,11.09
2023-01-04T22:23:59.187Z,11.09
2023-01-04T22:26:25.771Z,11.19
2023-01-04T22:28:52.368Z,11.29
2023-01-04T22:31:19.047Z,11.43
2023-01-04T22:33:45.638Z,11.47
2023-01-04T22:36:21.108Z,11.57
2023-01-04T22:38:49.597Z,11.57
2023-01-04T22:41:17.151Z,11.69
2023-01-04T22:43:44.386Z,11.55
2023-01-04T22:46:15.669Z,11.76
2023-01-04T22:48:42.290Z,11.87
2023-01-04T22:51:13.401Z,11.86
2023-01-04T22:53:40.410Z,11.86
2023-01-04T22:56:20.719Z,11.84
2023-01-04T22:58:54.757Z,11.71
2023-01-04T23:01:28.060Z,11.62
2023-01-04T23:03:55.779Z,11.77
2023-01-04T23:06:22.800Z,11.52
2023-01-04T23:08:54.752Z,11.41
2023-01-04T23:11:21.467Z,11.40
2023-01-04T23:13:48.254Z,11.42
2023-01-04T23:16:15.627Z,11.22
2023-01-04T23:18:42.660Z,11.30
2023-01-04T23:21:09.338Z,11.20
2023-01-04T23:23:36.256Z,11.28
2023-01-04T23:26:06.461Z,11.03
2023-01-04T23:28:35.693Z,10.92
2023-01-04T23:31:04.164Z,10.85
2023-01-04T23:33:35.703Z,10.70
2023-01-04T23:36:10.416Z,10.72
2023-01-04T23:38:38.269Z,10.89
2023-01-04T23:41:05.612Z,10.86
2023-01-04T23:43:32.272Z,10.77
2023-01-04T23:46:04.553Z,10.87
2023-01-04T23:48:31.152Z,10.98
2023-01-04T23:50:59.925Z,10.96
2023-01-04T23:53:26.588Z,10.99
2023-01-04T23:56:04.590Z,11.01
2023-01-04T23:58:31.526Z,11.22
